Time;durP1;ratioP1;P1;durP2;ratioP2;P2;SDS_P1;SDS_P2;PMS_P1;PMS_P2;Temp;Humidity;BMP_temperature;BMP_pressure;BME280_temperature;BME280_humidity;BME280_pressure;Samples;Min_cycle;Max_cycle;Signal;HPM_P1;HPM_P2
2023/12/17 00:00:04;;;;;;;2.08;1.75;;;1.40;99.90;;;;;;5037743;28;20044;-76
2023/12/17 00:02:31;;;;;;;4.30;2.90;;;1.40;99.90;;;;;;5037650;28;20490;-77
2023/12/17 00:04:57;;;;;;;1.95;1.63;;;1.30;99.90;;;;;;5030153;28;20034;-76
2023/12/17 00:07:23;;;;;;;3.78;1.98;;;1.30;99.90;;;;;;5031801;28;20034;-76
2023/12/17 00:09:49;;;;;;;1.77;1.67;;;1.30;99.90;;;;;;5033468;28;20022;-76
2023/12/17 00:12:15;;;;;;;20.48;4.22;;;1.20;99.90;;;;;;5035735;28;20056;-75
2023/12/17 00:14:42;;;;;;;1.27;1.27;;;1.20;99.90;;;;;;5034300;28;20029;-76
2023/12/17 00:17:08;;;;;;;6.53;3.22;;;1.20;99.90;;;;;;5031806;28;20426;-76
2023/12/17 00:19:34;;;;;;;4.20;1.92;;;1.20;99.90;;;;;;5029015;28;20077;-75
2023/12/17 00:22:00;;;;;;;1.33;0.95;;;1.20;99.90;;;;;;5030520;28;20049;-76
2023/12/17 00:24:26;;;;;;;4.13;3.75;;;1.30;99.90;;;;;;5039784;28;20030;-77
2023/12/17 00:26:54;;;;;;;1.85;1.52;;;1.40;99.90;;;;;;5028886;28;20040;-76
2023/12/17 00:29:21;;;;;;;1.35;1.30;;;1.40;99.90;;;;;;5033549;28;20029;-76
2023/12/17 00:31:47;;;;;;;1.85;1.75;;;1.40;99.90;;;;;;5016180;28;20479;-77
2023/12/17 00:34:14;;;;;;;0.63;0.63;;;1.40;99.90;;;;;;5040484;28;20052;-76
2023/12/17 00:36:40;;;;;;;1.75;1.27;;;1.30;99.90;;;;;;5016805;28;20041;-76
2023/12/17 00:39:06;;;;;;;2.30;1.60;;;1.40;99.90;;;;;;5029660;28;20484;-76
2023/12/17 00:41:33;;;;;;;1.23;1.10;;;1.40;99.90;;;;;;5031203;28;20041;-76
2023/12/17 00:43:59;;;;;;;2.80;1.55;;;1.40;99.90;;;;;;5016459;28;20046;-76
2023/12/17 00:46:26;;;;;;;2.67;1.67;;;1.40;99.90;;;;;;5036132;28;20057;-76
2023/12/17 00:48:52;;;;;;;9.18;2.47;;;1.40;99.90;;;;;;5023086;28;20399;-76
2023/12/17 00:51:18;;;;;;;0.85;0.85;;;1.40;99.90;;;;;;5031400;28;20049;-76
2023/12/17 00:53:44;;;;;;;1.10;1.00;;;1.40;99.90;;;;;;5030799;28;20097;-76
2023/12/17 00:56:10;;;;;;;1.77;1.67;;;1.40;99.90;;;;;;5026168;28;20475;-76
2023/12/17 00:58:36;;;;;;;2.22;0.88;;;1.40;99.90;;;;;;5030186;28;20371;-76
2023/12/17 01:01:03;;;;;;;1.08;0.80;;;1.40;99.90;;;;;;5032365;28;20450;-78
2023/12/17 01:03:29;;;;;;;1.02;0.85;;;1.40;99.90;;;;;;5031697;28;20036;-78
2023/12/17 01:05:55;;;;;;;0.77;0.73;;;1.40;99.90;;;;;;5040937;28;20124;-75
2023/12/17 01:08:21;;;;;;;2.42;1.05;;;1.40;99.90;;;;;;5040299;28;20037;-76
2023/12/17 01:10:47;;;;;;;1.63;1.55;;;1.40;99.90;;;;;;5031299;28;20033;-74
2023/12/17 01:13:13;;;;;;;12.95;1.25;;;1.40;99.90;;;;;;5033684;28;20048;-75
2023/12/17 01:15:40;;;;;;;4.13;1.40;;;1.30;99.90;;;;;;5042847;28;20040;-75
2023/12/17 01:18:06;;;;;;;2.30;1.75;;;1.30;99.90;;;;;;5035861;28;20040;-75
2023/12/17 01:20:32;;;;;;;2.05;1.75;;;1.20;99.90;;;;;;5046887;28;20084;-79
2023/12/17 01:22:58;;;;;;;2.15;2.05;;;1.30;99.90;;;;;;5032856;28;20060;-75
2023/12/17 01:25:25;;;;;;;0.60;0.50;;;1.30;99.90;;;;;;5038224;28;20041;-75
2023/12/17 01:27:51;;;;;;;2.28;0.82;;;1.40;99.90;;;;;;5038514;28;20474;-78
2023/12/17 01:30:17;;;;;;;1.50;1.40;;;1.30;99.90;;;;;;5033561;28;20036;-75
2023/12/17 01:32:43;;;;;;;1.33;1.23;;;1.20;99.90;;;;;;5030311;28;20052;-75
2023/12/17 01:35:09;;;;;;;7.05;1.33;;;1.20;99.90;;;;;;5036983;28;20041;-76
2023/12/17 01:37:36;;;;;;;1.55;1.27;;;1.30;99.90;;;;;;5044222;28;20494;-75
2023/12/17 01:40:02;;;;;;;3.78;1.40;;;1.30;99.90;;;;;;5042550;28;20030;-75
2023/12/17 01:42:29;;;;;;;2.25;2.10;;;1.20;99.90;;;;;;5032424;28;20045;-78
2023/12/17 01:44:55;;;;;;;0.75;0.68;;;1.20;99.90;;;;;;5037541;28;20040;-75
2023/12/17 01:47:22;;;;;;;1.95;1.60;;;1.10;99.90;;;;;;5042149;28;20029;-75
2023/12/17 01:49:48;;;;;;;0.80;0.80;;;1.10;99.90;;;;;;5039197;28;20041;-76
2023/12/17 01:52:14;;;;;;;1.13;1.13;;;1.10;99.90;;;;;;5030367;28;20044;-75
2023/12/17 01:54:40;;;;;;;1.58;0.88;;;1.10;99.90;;;;;;5033101;28;20363;-75
2023/12/17 01:57:07;;;;;;;3.22;1.98;;;1.10;99.90;;;;;;5032312;28;20038;-78
2023/12/17 01:59:35;;;;;;;8.52;1.55;;;1.10;99.90;;;;;;5036637;28;20036;-78
2023/12/17 02:02:02;;;;;;;2.08;1.10;;;1.00;99.90;;;;;;5039877;28;20052;-78
2023/12/17 02:04:28;;;;;;;4.53;4.00;;;1.00;99.90;;;;;;5037122;28;20044;-78
2023/12/17 02:06:55;;;;;;;0.75;0.75;;;1.00;99.90;;;;;;5034369;28;20032;-79
2023/12/17 02:09:21;;;;;;;2.22;2.00;;;1.00;99.90;;;;;;5041528;28;20108;-77
2023/12/17 02:11:47;;;;;;;5.65;1.85;;;1.00;99.90;;;;;;5041198;28;20489;-76
2023/12/17 02:14:13;;;;;;;2.88;1.40;;;1.00;99.90;;;;;;5033197;28;20037;-75
2023/12/17 02:16:39;;;;;;;4.25;2.38;;;1.00;99.90;;;;;;5033531;28;20045;-75
2023/12/17 02:19:05;;;;;;;2.50;2.33;;;1.00;99.90;;;;;;5031944;28;20057;-75
2023/12/17 02:21:31;;;;;;;1.63;1.52;;;1.10;99.90;;;;;;5026014;28;20550;-75
2023/12/17 02:23:58;;;;;;;7.22;3.90;;;1.10;99.90;;;;;;5029080;28;20034;-74
2023/12/17 02:26:24;;;;;;;0.93;0.93;;;1.10;99.90;;;;;;5033062;28;20497;-78
2023/12/17 02:28:50;;;;;;;1.58;1.48;;;1.10;99.90;;;;;;5030106;28;20038;-78
2023/12/17 02:31:16;;;;;;;2.40;1.95;;;1.10;99.90;;;;;;5033938;28;20029;-78
2023/12/17 02:33:42;;;;;;;1.23;1.23;;;1.00;99.90;;;;;;5024048;28;20041;-78
2023/12/17 02:36:08;;;;;;;1.52;1.42;;;1.10;99.90;;;;;;5033964;28;20042;-74
2023/12/17 02:38:35;;;;;;;2.78;2.13;;;1.00;99.90;;;;;;5038133;28;20029;-79
2023/12/17 02:41:01;;;;;;;1.55;1.30;;;0.90;99.90;;;;;;5030819;28;20038;-75
2023/12/17 02:43:27;;;;;;;4.43;1.05;;;0.90;99.90;;;;;;5043438;28;20033;-75
2023/12/17 02:45:53;;;;;;;5.15;3.38;;;0.80;99.90;;;;;;5033771;28;20030;-75
2023/12/17 02:48:19;;;;;;;1.38;1.30;;;0.80;99.90;;;;;;5034534;28;20038;-75
2023/12/17 02:50:45;;;;;;;1.88;1.73;;;0.80;99.90;;;;;;5015993;28;20045;-75
2023/12/17 02:53:11;;;;;;;0.75;0.50;;;0.80;99.90;;;;;;5036103;28;20049;-75
2023/12/17 02:55:37;;;;;;;3.10;2.17;;;0.70;99.90;;;;;;5026702;28;20029;-74
2023/12/17 02:58:05;;;;;;;0.65;0.65;;;0.70;99.90;;;;;;5032176;28;20370;-78
2023/12/17 03:00:32;;;;;;;0.30;0.30;;;0.70;99.90;;;;;;5031620;28;20045;-79
2023/12/17 03:02:58;;;;;;;3.45;2.90;;;0.70;99.90;;;;;;5029441;28;20033;-78
2023/12/17 03:05:24;;;;;;;4.53;3.25;;;0.60;91.80;;;;;;5041480;28;20034;-75
2023/12/17 03:07:50;;;;;;;1.45;1.35;;;0.50;89.30;;;;;;5034904;28;20021;-75
2023/12/17 03:10:16;;;;;;;0.95;0.95;;;0.50;93.10;;;;;;5032650;28;20030;-76
2023/12/17 03:12:43;;;;;;;1.30;1.13;;;0.40;94.90;;;;;;5031298;28;20462;-76
2023/12/17 03:15:09;;;;;;;1.60;1.27;;;0.40;99.90;;;;;;5036552;28;20372;-76
2023/12/17 03:17:35;;;;;;;8.88;2.40;;;0.40;99.90;;;;;;5033084;28;20033;-75
2023/12/17 03:20:04;;;;;;;1.48;1.38;;;0.40;99.90;;;;;;5030076;28;20041;-78
2023/12/17 03:22:31;;;;;;;1.63;1.52;;;0.50;99.90;;;;;;5032171;28;20037;-78
2023/12/17 03:24:58;;;;;;;2.58;2.38;;;0.50;99.90;;;;;;5037648;28;20040;-78
2023/12/17 03:27:24;;;;;;;6.15;2.55;;;0.50;99.90;;;;;;5036796;28;20418;-78
2023/12/17 03:29:50;;;;;;;3.67;2.22;;;0.50;99.90;;;;;;5030665;28;20026;-78
2023/12/17 03:32:16;;;;;;;2.08;1.55;;;0.50;99.90;;;;;;5030243;28;20038;-78
2023/12/17 03:34:42;;;;;;;0.98;0.90;;;0.50;99.90;;;;;;5035880;28;20044;-78
2023/12/17 03:37:09;;;;;;;1.75;1.65;;;0.40;93.60;;;;;;5040094;28;20336;-78
2023/12/17 03:39:35;;;;;;;1.38;0.98;;;0.40;80.20;;;;;;5030245;28;20529;-78
2023/12/17 03:42:01;;;;;;;1.05;0.45;;;0.40;84.10;;;;;;5032412;28;20037;-78
2023/12/17 03:44:27;;;;;;;5.70;1.30;;;0.40;70.40;;;;;;5033694;28;20029;-78
2023/12/17 03:46:53;;;;;;;4.63;3.13;;;0.30;51.10;;;;;;5029129;28;20065;-78
2023/12/17 03:49:19;;;;;;;2.05;1.88;;;0.40;55.60;;;;;;5029658;28;20371;-79
2023/12/17 03:51:45;;;;;;;0.20;0.20;;;0.40;53.70;;;;;;5027030;28;20041;-78
2023/12/17 03:54:11;;;;;;;1.50;1.45;;;0.40;40.80;;;;;;5031703;28;20029;-78
2023/12/17 03:56:37;;;;;;;3.00;2.33;;;0.30;25.90;;;;;;5015265;28;20494;-79
2023/12/17 03:59:04;;;;;;;1.30;1.20;;;0.30;34.20;;;;;;5025553;28;20044;-79
2023/12/17 04:01:30;;;;;;;1.77;1.35;;;0.30;84.60;;;;;;5024575;28;20060;-78
2023/12/17 04:03:57;;;;;;;4.15;2.38;;;0.40;99.90;;;;;;5030739;28;20041;-78
2023/12/17 04:06:23;;;;;;;4.78;0.75;;;0.40;99.90;;;;;;5036407;28;20033;-78
2023/12/17 04:08:52;;;;;;;0.30;0.30;;;0.50;99.90;;;;;;5036254;28;20044;-78
2023/12/17 04:11:19;;;;;;;5.80;2.72;;;0.40;99.90;;;;;;5028712;28;20033;-78
2023/12/17 04:13:45;;;;;;;3.70;1.80;;;0.40;99.90;;;;;;5031574;28;20040;-78
2023/12/17 04:16:11;;;;;;;3.05;2.85;;;0.30;99.90;;;;;;5033630;28;20045;-77
2023/12/17 04:18:37;;;;;;;3.42;3.15;;;0.40;99.90;;;;;;5039148;28;20489;-77
2023/12/17 04:21:04;;;;;;;4.03;3.10;;;0.40;99.90;;;;;;5029253;28;20125;-80
2023/12/17 04:23:30;;;;;;;0.88;0.88;;;0.40;99.90;;;;;;5027046;28;20058;-78
2023/12/17 04:25:57;;;;;;;6.13;2.15;;;0.40;99.90;;;;;;5032839;28;20033;-78
2023/12/17 04:28:23;;;;;;;2.30;1.27;;;0.30;99.90;;;;;;5036434;28;20033;-78
2023/12/17 04:30:49;;;;;;;1.95;1.85;;;0.30;99.90;;;;;;5022191;28;20045;-78
2023/12/17 04:33:15;;;;;;;2.88;2.30;;;0.30;99.90;;;;;;5029189;28;20033;-78
2023/12/17 04:35:41;;;;;;;2.40;2.05;;;0.20;99.90;;;;;;5031229;28;20037;-78
2023/12/17 04:38:07;;;;;;;1.40;1.30;;;0.20;99.90;;;;;;5034293;28;20386;-78
2023/12/17 04:40:33;;;;;;;4.03;2.33;;;0.10;99.90;;;;;;5032836;28;20029;-78
2023/12/17 04:42:59;;;;;;;2.97;1.92;;;0.10;99.90;;;;;;5029693;28;20042;-78
2023/12/17 04:45:26;;;;;;;1.40;1.30;;;0.10;99.90;;;;;;5025812;28;20483;-78
2023/12/17 04:47:52;;;;;;;1.58;1.50;;;0.10;99.90;;;;;;5018975;28;20041;-78
2023/12/17 04:50:18;;;;;;;0.75;0.75;;;0.10;99.90;;;;;;5040629;28;20042;-78
2023/12/17 04:52:44;;;;;;;1.55;1.50;;;0.10;99.90;;;;;;5042598;28;20029;-78
2023/12/17 04:55:10;;;;;;;1.10;1.00;;;0.20;99.90;;;;;;5033333;28;20028;-79
2023/12/17 04:57:36;;;;;;;1.52;1.38;;;0.10;99.90;;;;;;5032869;28;20033;-78
2023/12/17 05:00:05;;;;;;;2.92;2.55;;;0.00;99.90;;;;;;5041013;28;20033;-78
2023/12/17 05:02:31;;;;;;;4.68;3.58;;;-0.10;99.90;;;;;;5041217;28;20045;-78
2023/12/17 05:04:57;;;;;;;1.70;1.38;;;-0.20;99.90;;;;;;5036973;28;20236;-78
2023/12/17 05:07:23;;;;;;;2.80;2.60;;;-0.20;99.90;;;;;;5065564;28;20490;-78
2023/12/17 05:09:49;;;;;;;2.45;2.28;;;-0.20;99.90;;;;;;5035312;28;20044;-79
2023/12/17 05:12:15;;;;;;;2.75;2.55;;;-0.20;99.90;;;;;;5037239;28;20044;-79
2023/12/17 05:14:42;;;;;;;2.33;2.13;;;-0.30;99.90;;;;;;5015840;28;20038;-78
2023/12/17 05:17:08;;;;;;;0.80;0.80;;;-0.40;99.90;;;;;;5034073;28;20029;-78
2023/12/17 05:19:34;;;;;;;3.75;2.05;;;-0.30;99.90;;;;;;5038008;28;20026;-78
2023/12/17 05:22:00;;;;;;;0.88;0.80;;;-0.30;99.90;;;;;;5038056;28;20045;-79
2023/12/17 05:24:26;;;;;;;3.90;2.00;;;-0.20;99.90;;;;;;5073847;28;20049;-78
2023/12/17 05:26:52;;;;;;;1.15;0.98;;;-0.20;99.90;;;;;;5032700;28;20029;-78
2023/12/17 05:29:18;;;;;;;1.05;1.05;;;-0.10;99.90;;;;;;5031208;28;20096;-78
2023/12/17 05:31:44;;;;;;;15.70;2.55;;;-0.10;99.90;;;;;;5035659;28;20038;-79
2023/12/17 05:34:11;;;;;;;1.38;1.05;;;-0.10;99.90;;;;;;5043636;28;20429;-76
2023/12/17 05:36:37;;;;;;;1.80;1.70;;;-0.10;99.90;;;;;;5031988;28;20046;-77
2023/12/17 05:39:04;;;;;;;1.60;1.50;;;-0.10;99.90;;;;;;5033166;28;20048;-78
2023/12/17 05:41:30;;;;;;;2.83;1.95;;;0.00;99.90;;;;;;5032095;28;20045;-78
2023/12/17 05:43:56;;;;;;;2.08;1.65;;;0.00;99.90;;;;;;5042106;28;20025;-78
2023/12/17 05:46:22;;;;;;;1.90;1.80;;;0.10;99.90;;;;;;5046700;28;20033;-78
2023/12/17 05:48:48;;;;;;;1.58;1.33;;;0.10;99.90;;;;;;5033574;28;20030;-78
2023/12/17 05:51:15;;;;;;;1.40;1.30;;;0.20;99.90;;;;;;5036050;28;20034;-78
2023/12/17 05:53:41;;;;;;;0.63;0.50;;;0.20;99.90;;;;;;5037081;28;20390;-79
2023/12/17 05:56:07;;;;;;;1.95;1.85;;;0.30;99.90;;;;;;5044480;28;20042;-78
2023/12/17 05:58:33;;;;;;;3.15;1.75;;;0.30;99.90;;;;;;5033992;28;20725;-78
2023/12/17 06:01:00;;;;;;;8.75;2.75;;;0.30;99.90;;;;;;5031186;28;20812;-78
2023/12/17 06:03:26;;;;;;;0.50;0.50;;;0.30;99.90;;;;;;5033923;28;20386;-78
2023/12/17 06:05:52;;;;;;;2.28;2.08;;;0.20;99.90;;;;;;5039979;28;20041;-78
2023/12/17 06:08:18;;;;;;;1.25;0.82;;;0.20;99.90;;;;;;5041714;28;20041;-78
2023/12/17 06:10:44;;;;;;;0.98;0.95;;;0.20;99.90;;;;;;5032977;28;20029;-78
2023/12/17 06:13:10;;;;;;;1.90;1.75;;;0.20;99.90;;;;;;5039084;28;20502;-76
2023/12/17 06:15:36;;;;;;;0.50;0.50;;;0.20;99.90;;;;;;5037567;28;20407;-76
2023/12/17 06:18:03;;;;;;;0.40;0.35;;;0.20;99.90;;;;;;5046717;28;20025;-75
2023/12/17 06:20:30;;;;;;;1.40;1.30;;;0.20;99.90;;;;;;5032974;28;20060;-77
2023/12/17 06:22:56;;;;;;;0.60;0.50;;;0.10;99.90;;;;;;5033949;28;20044;-78
2023/12/17 06:25:22;;;;;;;0.43;0.43;;;0.10;99.90;;;;;;5041334;28;20049;-77
2023/12/17 06:27:51;;;;;;;2.40;1.52;;;0.10;99.90;;;;;;5030745;28;20033;-77
2023/12/17 06:30:18;;;;;;;1.05;0.77;;;0.10;99.90;;;;;;5026595;28;20395;-77
2023/12/17 06:32:45;;;;;;;2.75;2.08;;;0.10;99.90;;;;;;5030702;28;20049;-77
2023/12/17 06:35:11;;;;;;;4.43;2.70;;;0.10;99.90;;;;;;5033638;28;20042;-77
2023/12/17 06:37:37;;;;;;;0.80;0.80;;;0.00;99.90;;;;;;5037652;28;20033;-77
2023/12/17 06:40:04;;;;;;;15.98;1.33;;;0.00;99.90;;;;;;5041672;28;20668;-78
2023/12/17 06:42:30;;;;;;;4.47;2.00;;;0.10;99.90;;;;;;5033359;28;20471;-77
2023/12/17 06:44:56;;;;;;;2.45;1.10;;;0.10;99.90;;;;;;5034645;28;20100;-77
2023/12/17 06:47:22;;;;;;;0.93;0.93;;;0.20;99.90;;;;;;5035790;28;20040;-77
2023/12/17 06:49:48;;;;;;;1.38;1.27;;;0.20;99.90;;;;;;5029077;28;20657;-77
2023/12/17 06:52:14;;;;;;;5.35;1.88;;;0.30;99.90;;;;;;5036070;28;20493;-77
2023/12/17 06:54:41;;;;;;;1.50;1.30;;;0.40;99.90;;;;;;5029011;28;20095;-78
2023/12/17 06:57:07;;;;;;;0.57;0.57;;;0.30;99.90;;;;;;5036874;28;20033;-76
2023/12/17 06:59:33;;;;;;;0.40;0.40;;;0.30;99.90;;;;;;5029839;28;20048;-77
2023/12/17 07:01:59;;;;;;;1.75;0.85;;;0.30;99.90;;;;;;5033864;28;20044;-76
2023/12/17 07:04:28;;;;;;;0.98;0.98;;;0.30;99.90;;;;;;5031374;28;20030;-76
2023/12/17 07:06:55;;;;;;;2.13;1.75;;;0.30;99.90;;;;;;5033836;28;20037;-77
2023/12/17 07:09:21;;;;;;;2.25;1.88;;;0.30;99.90;;;;;;5040946;28;20051;-77
2023/12/17 07:11:47;;;;;;;1.17;1.15;;;0.30;99.90;;;;;;5044783;28;20029;-78
2023/12/17 07:14:13;;;;;;;0.88;0.88;;;0.30;99.90;;;;;;5032369;28;20033;-77
2023/12/17 07:16:39;;;;;;;1.17;1.08;;;0.30;99.90;;;;;;5032189;28;20029;-77
2023/12/17 07:19:05;;;;;;;3.58;3.13;;;0.40;99.90;;;;;;5027566;28;20456;-77
2023/12/17 07:21:31;;;;;;;2.90;2.65;;;0.40;99.90;;;;;;5038579;28;20053;-77
2023/12/17 07:23:57;;;;;;;7.13;6.55;;;0.40;99.90;;;;;;5025753;28;20071;-77
2023/12/17 07:26:24;;;;;;;13.95;7.97;;;0.40;99.90;;;;;;5027906;28;20033;-77
2023/12/17 07:28:50;;;;;;;9.38;8.50;;;0.40;99.90;;;;;;5025857;28;20042;-77
2023/12/17 07:31:16;;;;;;;36.80;29.60;;;0.40;99.90;;;;;;5032856;28;20033;-76
2023/12/17 07:33:43;;;;;;;28.80;23.80;;;0.40;99.90;;;;;;5035132;28;20056;-78
2023/12/17 07:36:09;;;;;;;32.00;18.33;;;0.40;99.90;;;;;;5030325;28;20374;-77
2023/12/17 07:38:35;;;;;;;27.35;13.57;;;0.50;99.90;;;;;;5031181;28;20038;-77
2023/12/17 07:41:01;;;;;;;9.55;8.65;;;0.50;99.90;;;;;;5031878;28;20215;-78
2023/12/17 07:43:28;;;;;;;5.65;3.47;;;0.50;99.90;;;;;;5035629;28;20050;-77
2023/12/17 07:45:55;;;;;;;6.60;4.55;;;0.60;99.90;;;;;;5033666;28;20037;-77
2023/12/17 07:48:21;;;;;;;5.70;4.30;;;0.60;99.90;;;;;;5030783;28;20052;-77
2023/12/17 07:50:47;;;;;;;3.65;2.95;;;0.70;99.90;;;;;;5033533;28;20033;-78
2023/12/17 07:53:13;;;;;;;5.45;4.97;;;0.70;99.90;;;;;;5035573;28;20489;-77
2023/12/17 07:55:40;;;;;;;12.95;5.25;;;0.70;99.90;;;;;;5027250;28;20033;-76
2023/12/17 07:58:07;;;;;;;3.78;3.47;;;0.80;99.90;;;;;;5030733;28;20021;-77
2023/12/17 08:00:35;;;;;;;1.00;1.00;;;0.80;99.90;;;;;;5010377;28;20046;-77
2023/12/17 08:03:01;;;;;;;2.88;2.67;;;0.90;99.90;;;;;;5037357;28;20033;-76
2023/12/17 08:05:27;;;;;;;1.25;1.23;;;0.90;99.90;;;;;;5040531;28;20044;-76
2023/12/17 08:07:53;;;;;;;7.13;3.05;;;1.00;99.90;;;;;;5026929;28;20038;-76
2023/12/17 08:10:19;;;;;;;3.10;2.45;;;1.10;99.90;;;;;;5036587;28;20037;-76
2023/12/17 08:12:46;;;;;;;1.58;1.48;;;1.10;99.90;;;;;;5031524;28;20029;-78
2023/12/17 08:15:12;;;;;;;1.73;1.63;;;1.30;99.90;;;;;;5039878;28;20516;-76
2023/12/17 08:17:38;;;;;;;1.83;1.73;;;1.20;99.90;;;;;;5037522;28;20049;-76
2023/12/17 08:20:05;;;;;;;1.05;0.95;;;1.30;99.90;;;;;;5031726;28;20033;-75
2023/12/17 08:22:32;;;;;;;2.22;2.00;;;1.40;99.90;;;;;;5029863;28;20036;-75
2023/12/17 08:24:58;;;;;;;1.08;1.08;;;1.50;99.90;;;;;;5029929;28;20052;-76
2023/12/17 08:27:24;;;;;;;6.43;2.53;;;1.50;99.90;;;;;;5031170;28;20026;-76
2023/12/17 08:29:50;;;;;;;1.77;1.67;;;1.60;99.90;;;;;;5030092;28;20042;-77
2023/12/17 08:32:17;;;;;;;2.90;2.67;;;1.60;99.90;;;;;;5029050;28;20040;-75
2023/12/17 08:34:43;;;;;;;0.85;0.85;;;1.70;99.90;;;;;;5031662;28;20064;-76
2023/12/17 08:37:09;;;;;;;3.28;2.72;;;1.80;99.90;;;;;;5033812;28;20036;-76
2023/12/17 08:39:35;;;;;;;1.77;1.67;;;1.80;99.90;;;;;;5032679;28;20040;-76
2023/12/17 08:42:01;;;;;;;6.22;1.90;;;1.90;99.90;;;;;;5030435;28;20030;-76
2023/12/17 08:44:27;;;;;;;2.55;2.15;;;2.00;99.90;;;;;;5030300;28;20045;-76
2023/12/17 08:46:54;;;;;;;1.70;1.60;;;2.00;99.90;;;;;;5015269;28;20048;-76
2023/12/17 08:49:20;;;;;;;1.17;1.08;;;2.00;99.90;;;;;;5036895;28;20029;-76
2023/12/17 08:51:46;;;;;;;1.38;1.30;;;2.00;99.90;;;;;;5029884;28;20037;-76
2023/12/17 08:54:13;;;;;;;2.15;1.95;;;2.10;91.90;;;;;;5030453;28;20048;-76
2023/12/17 08:56:40;;;;;;;1.20;1.20;;;2.10;37.10;;;;;;5038789;28;20037;-76
2023/12/17 08:59:06;;;;;;;0.98;0.85;;;2.10;6.20;;;;;;5037729;28;20040;-77
2023/12/17 09:01:32;;;;;;;1.70;1.45;;;2.20;1.00;;;;;;5029431;28;20044;-76
2023/12/17 09:03:58;;;;;;;0.68;0.68;;;2.30;1.00;;;;;;5030043;28;20383;-77
2023/12/17 09:06:24;;;;;;;8.00;3.55;;;2.30;1.00;;;;;;5033609;28;20414;-76
2023/12/17 09:08:51;;;;;;;5.85;2.20;;;2.30;1.00;;;;;;5035025;28;20041;-77
2023/12/17 09:11:17;;;;;;;4.05;2.85;;;2.40;1.00;;;;;;5034598;28;20022;-76
2023/12/17 09:13:43;;;;;;;3.47;1.75;;;2.40;1.00;;;;;;5031572;28;20470;-76
2023/12/17 09:16:10;;;;;;;2.13;1.83;;;2.40;1.00;;;;;;5033550;28;20470;-76
2023/12/17 09:18:36;;;;;;;4.07;3.55;;;2.40;1.00;;;;;;5039819;28;20034;-76
2023/12/17 09:21:02;;;;;;;1.85;1.75;;;2.50;99.90;;;;;;5040515;28;20041;-76
2023/12/17 09:23:28;;;;;;;19.40;3.10;;;2.50;99.90;;;;;;5030316;28;20037;-75
2023/12/17 09:25:57;;;;;;;2.95;2.42;;;2.50;99.90;;;;;;5030766;28;20490;-76
2023/12/17 09:28:23;;;;;;;2.28;2.08;;;2.60;99.90;;;;;;5036495;28;20029;-76
2023/12/17 09:30:49;;;;;;;1.58;1.48;;;2.60;99.90;;;;;;5033061;28;20037;-77
2023/12/17 09:33:16;;;;;;;2.47;2.28;;;2.70;99.90;;;;;;5036890;28;20029;-76
2023/12/17 09:35:42;;;;;;;1.75;1.33;;;2.70;99.90;;;;;;5031997;28;20492;-76
2023/12/17 09:38:10;;;;;;;1.33;1.23;;;2.70;99.90;;;;;;5037345;28;20386;-76
2023/12/17 09:40:36;;;;;;;1.30;1.25;;;2.80;99.90;;;;;;5039146;28;20525;-75
2023/12/17 09:43:04;;;;;;;3.03;2.83;;;2.90;99.90;;;;;;5040185;28;20050;-76
2023/12/17 09:45:30;;;;;;;2.38;1.73;;;2.90;99.90;;;;;;5033660;28;20045;-76
2023/12/17 09:47:57;;;;;;;2.53;2.42;;;3.00;99.90;;;;;;5033442;28;20033;-76
2023/12/17 09:50:27;;;;;;;1.88;1.73;;;3.00;99.90;;;;;;5032152;28;20032;-77
2023/12/17 09:52:54;;;;;;;1.48;1.38;;;3.00;99.90;;;;;;5029883;28;20028;-76
2023/12/17 09:55:21;;;;;;;3.15;2.90;;;3.10;99.90;;;;;;5033701;28;20029;-76
2023/12/17 09:57:47;;;;;;;4.07;2.80;;;3.10;99.90;;;;;;5048137;28;20030;-75
2023/12/17 10:00:14;;;;;;;0.95;0.95;;;3.20;99.90;;;;;;5031177;28;20033;-77
2023/12/17 10:02:41;;;;;;;0.75;0.75;;;3.20;99.90;;;;;;5036468;28;20029;-75
2023/12/17 10:05:07;;;;;;;3.97;2.83;;;3.20;99.90;;;;;;5031607;28;20041;-74
2023/12/17 10:07:34;;;;;;;1.25;1.20;;;3.30;99.90;;;;;;5031084;28;20041;-75
2023/12/17 10:10:00;;;;;;;1.70;1.60;;;3.30;99.90;;;;;;5035294;28;20033;-76
2023/12/17 10:12:27;;;;;;;8.88;4.75;;;3.30;99.90;;;;;;5034654;28;20383;-75
2023/12/17 10:14:54;;;;;;;3.30;3.00;;;3.30;99.90;;;;;;5042322;28;20037;-75
2023/12/17 10:17:21;;;;;;;2.13;1.92;;;3.40;99.90;;;;;;5023772;28;20060;-77
2023/12/17 10:19:53;;;;;;;3.80;2.97;;;3.40;97.30;;;;;;5030213;28;20032;-75
2023/12/17 10:22:20;;;;;;;2.67;2.47;;;3.50;99.90;;;;;;5033118;28;20083;-75
2023/12/17 10:24:46;;;;;;;2.15;2.05;;;3.60;99.90;;;;;;5030351;28;20060;-76
2023/12/17 10:27:20;;;;;;;1.58;1.48;;;3.70;93.60;;;;;;5028339;28;20049;-76
2023/12/17 10:29:51;;;;;;;1.30;1.23;;;3.70;78.50;;;;;;5044588;28;20048;-77
2023/12/17 10:32:26;;;;;;;;;;;3.90;55.00;;;;;;5035250;28;20056;-76
2023/12/17 10:34:53;;;;;;;1.50;1.40;;;4.00;35.60;;;;;;5033880;28;19909;-78
2023/12/17 10:37:21;;;;;;;2.60;2.05;;;4.10;20.40;;;;;;5024612;28;20033;-76
2023/12/17 10:39:51;;;;;;;3.28;1.63;;;4.10;1.50;;;;;;5030992;28;20033;-76
2023/12/17 10:42:19;;;;;;;2.13;2.03;;;4.20;1.00;;;;;;5030937;28;20052;-76
2023/12/17 10:44:49;;;;;;;4.57;4.22;;;4.30;1.00;;;;;;5034036;28;20034;-76
2023/12/17 10:47:22;;;;;;;0.93;0.93;;;4.40;1.00;;;;;;5027500;28;20041;-76
2023/12/17 10:49:48;;;;;;;2.65;2.45;;;4.40;1.00;;;;;;5030058;28;20111;-76
2023/12/17 10:52:15;;;;;;;2.42;1.42;;;4.30;1.00;;;;;;5031674;28;20497;-76
2023/12/17 10:54:41;;;;;;;1.25;1.15;;;4.30;1.00;;;;;;5032466;28;20040;-76
2023/12/17 10:57:13;;;;;;;1.55;1.45;;;4.40;1.00;;;;;;5029880;28;20030;-76
2023/12/17 10:59:41;;;;;;;4.43;1.30;;;4.50;1.00;;;;;;5046708;28;20037;-76
2023/12/17 11:02:11;;;;;;;1.08;1.05;;;4.50;1.00;;;;;;5030590;28;20041;-76
2023/12/17 11:04:44;;;;;;;1.30;1.20;;;4.60;1.00;;;;;;5034750;28;20048;-74
2023/12/17 11:07:10;;;;;;;0.82;0.82;;;4.50;1.00;;;;;;5028187;28;20041;-76
2023/12/17 11:09:36;;;;;;;6.57;1.75;;;4.60;1.00;;;;;;5031815;28;20021;-77
2023/12/17 11:12:07;;;;;;;0.63;0.63;;;4.70;1.00;;;;;;5031430;28;20025;-76
2023/12/17 11:14:33;;;;;;;1.60;0.98;;;4.70;1.00;;;;;;5034290;28;20029;-77
2023/12/17 11:17:00;;;;;;;3.05;2.53;;;4.70;1.00;;;;;;5033884;28;20052;-77
2023/12/17 11:19:26;;;;;;;5.50;2.97;;;4.80;1.00;;;;;;5047253;28;20045;-76
2023/12/17 11:21:54;;;;;;;1.83;1.63;;;4.90;1.00;;;;;;5030838;28;20057;-77
2023/12/17 11:24:20;;;;;;;1.08;0.80;;;5.00;1.00;;;;;;5034152;28;20038;-76
2023/12/17 11:26:48;;;;;;;1.13;1.08;;;5.10;1.00;;;;;;5032709;28;20090;-76
2023/12/17 11:29:50;;;;;;;3.13;2.85;;;5.10;1.00;;;;;;5029978;28;20040;-76
2023/12/17 11:32:21;;;;;;;3.95;2.05;;;5.20;1.00;;;;;;4989995;28;20046;-77
2023/12/17 11:34:50;;;;;;;2.30;1.75;;;5.20;1.00;;;;;;5023353;28;20053;-78
2023/12/17 11:37:21;;;;;;;1.30;1.20;;;5.30;1.00;;;;;;5029291;28;20029;-77
2023/12/17 11:39:48;;;;;;;0.60;0.60;;;5.30;1.00;;;;;;5030699;28;20052;-78
2023/12/17 11:42:16;;;;;;;1.17;1.08;;;5.30;1.00;;;;;;5029556;28;20033;-77
2023/12/17 11:44:46;;;;;;;5.53;1.65;;;5.40;1.00;;;;;;5037598;28;20048;-77
2023/12/17 11:47:13;;;;;;;3.45;1.67;;;5.40;1.00;;;;;;5036684;28;20053;-78
2023/12/17 11:49:40;;;;;;;1.67;1.40;;;5.40;1.00;;;;;;5035392;28;20153;-78
2023/12/17 11:52:20;;;;;;;2.53;1.80;;;5.50;1.00;;;;;;5037581;28;20056;-77
2023/12/17 11:54:47;;;;;;;1.30;1.20;;;5.60;1.00;;;;;;5031636;28;20036;-77
2023/12/17 11:57:21;;;;;;;1.23;1.13;;;5.60;1.00;;;;;;5032776;28;20243;-77
2023/12/17 11:59:47;;;;;;;3.13;1.58;;;5.70;1.00;;;;;;5036463;28;20021;-78
2023/12/17 12:02:18;;;;;;;2.45;2.13;;;5.70;99.90;;;;;;5026100;28;20033;-77
2023/12/17 12:04:45;;;;;;;3.97;2.72;;;5.70;1.00;;;;;;5028585;28;20041;-77
2023/12/17 12:07:16;;;;;;;7.05;4.75;;;5.80;1.00;;;;;;5028654;28;20044;-77
2023/12/17 12:09:44;;;;;;;13.50;9.80;;;5.80;99.90;;;;;;5031416;28;20040;-77
2023/12/17 12:12:17;;;;;;;11.18;10.05;;;5.80;99.90;;;;;;5025999;28;20041;-78
2023/12/17 12:14:45;;;;;;;12.77;6.25;;;5.90;99.90;;;;;;5026424;28;20029;-76
2023/12/17 12:17:41;;;;;;;4.85;4.43;;;6.00;99.90;;;;;;5030111;28;20042;-78
2023/12/17 12:20:14;;;;;;;2.15;1.95;;;6.00;99.90;;;;;;5027656;28;20025;-77
2023/12/17 12:22:42;;;;;;;1.45;1.35;;;6.10;99.90;;;;;;5025952;28;20056;-77
2023/12/17 12:25:10;;;;;;;2.03;1.83;;;6.10;99.90;;;;;;5024222;28;20041;-78
2023/12/17 12:27:37;;;;;;;4.45;2.63;;;6.10;99.90;;;;;;5027107;28;20026;-75
2023/12/17 12:30:04;;;;;;;0.65;0.65;;;6.20;99.90;;;;;;5032140;28;20029;-76
2023/12/17 12:32:32;;;;;;;2.80;2.05;;;6.20;99.90;;;;;;5026913;28;20029;-75
2023/12/17 12:34:59;;;;;;;2.80;2.20;;;6.30;99.90;;;;;;5033781;28;20099;-77
2023/12/17 12:37:38;;;;;;;0.82;0.80;;;6.30;99.90;;;;;;5029797;28;20359;-76
2023/12/17 12:40:07;;;;;;;1.45;1.40;;;6.30;99.90;;;;;;5031730;28;20033;-76
2023/12/17 12:42:34;;;;;;;1.52;1.33;;;6.30;99.90;;;;;;5032641;28;20037;-75
2023/12/17 12:45:00;;;;;;;2.20;1.75;;;6.30;99.90;;;;;;5037605;28;20442;-76
2023/12/17 12:47:28;;;;;;;1.88;1.63;;;6.30;99.90;;;;;;5021041;28;20383;-76
2023/12/17 12:49:55;;;;;;;4.03;1.38;;;6.30;99.90;;;;;;5024192;28;20029;-77
2023/12/17 12:52:22;;;;;;;4.43;1.55;;;6.30;99.90;;;;;;5034024;28;20037;-76
2023/12/17 12:54:52;;;;;;;7.68;2.83;;;6.40;99.90;;;;;;5032268;28;20394;-75